createdAt,value
2023-02-09T00:01:31.902Z,85.90
2023-02-09T00:04:02.458Z,85.40
2023-02-09T00:06:30.212Z,86.00
2023-02-09T00:08:58.913Z,86.20
2023-02-09T00:11:50.328Z,85.60
2023-02-09T00:14:21.924Z,85.60
2023-02-09T00:16:50.966Z,84.70
2023-02-09T00:19:20.315Z,84.70
2023-02-09T00:21:48.771Z,84.30
2023-02-09T00:24:16.177Z,83.80
2023-02-09T00:26:43.672Z,83.60
2023-02-09T00:29:12.049Z,83.70
2023-02-09T00:31:39.632Z,83.70
2023-02-09T00:34:07.395Z,83.50
2023-02-09T00:36:34.877Z,83.00
2023-02-09T00:39:02.257Z,82.40
2023-02-09T00:41:47.910Z,81.80
2023-02-09T00:44:14.951Z,81.40
2023-02-09T00:46:42.002Z,80.80
2023-02-09T00:49:08.872Z,80.20
2023-02-09T00:51:36.097Z,79.60
2023-02-09T00:54:04.092Z,79.20
2023-02-09T00:56:31.094Z,78.70
2023-02-09T00:58:58.008Z,78.60
2023-02-09T01:01:24.944Z,78.50
2023-02-09T01:03:51.851Z,78.60
2023-02-09T01:06:18.738Z,78.30
2023-02-09T01:08:45.607Z,78.40
2023-02-09T01:11:16.510Z,78.40
2023-02-09T01:13:45.324Z,78.50
2023-02-09T01:16:17.684Z,78.30
2023-02-09T01:18:45.317Z,78.30
2023-02-09T01:21:17.936Z,78.50
2023-02-09T01:23:47.125Z,78.60
2023-02-09T01:26:17.043Z,78.30
2023-02-09T01:28:48.885Z,78.00
2023-02-09T01:31:33.249Z,77.60
2023-02-09T01:34:03.939Z,77.30
2023-02-09T01:36:32.913Z,76.90
2023-02-09T01:39:03.047Z,76.50
2023-02-09T01:41:32.926Z,76.10
2023-02-09T01:44:11.685Z,75.80
2023-02-09T01:46:39.933Z,75.80
2023-02-09T01:49:19.052Z,75.60
2023-02-09T01:52:04.318Z,75.70
2023-02-09T01:54:48.017Z,75.70
2023-02-09T01:57:27.428Z,75.70
2023-02-09T02:00:08.301Z,75.60
2023-02-09T02:02:36.633Z,75.50
2023-02-09T02:05:07.963Z,75.60
2023-02-09T02:08:05.821Z,75.60
2023-02-09T02:10:33.817Z,75.60
2023-02-09T02:13:01.915Z,75.80
2023-02-09T02:16:24.514Z,76.00
2023-02-09T02:19:46.733Z,75.40
2023-02-09T02:23:05.127Z,75.30
2023-02-09T02:26:07.587Z,75.10
2023-02-09T02:29:32.335Z,75.30
2023-02-09T02:32:50.854Z,75.50
2023-02-09T02:35:39.704Z,75.50
2023-02-09T02:38:38.921Z,75.50
2023-02-09T02:41:10.494Z,75.40
2023-02-09T02:44:08.429Z,75.40
2023-02-09T02:46:54.526Z,75.10
2023-02-09T02:49:45.672Z,75.10
2023-02-09T02:52:13.110Z,75.20
2023-02-09T02:54:51.620Z,75.10
2023-02-09T02:57:25.252Z,75.30
2023-02-09T03:00:11.082Z,75.30
2023-02-09T03:02:55.117Z,75.50
2023-02-09T03:05:26.116Z,75.10
2023-02-09T03:07:53.131Z,74.80
2023-02-09T03:10:34.752Z,75.20
2023-02-09T03:14:01.787Z,75.20
2023-02-09T03:16:54.953Z,75.30
2023-02-09T03:20:05.432Z,75.60
2023-02-09T03:22:50.899Z,75.70
2023-02-09T03:25:29.883Z,75.60
2023-02-09T03:28:18.216Z,75.70
2023-02-09T03:30:49.919Z,75.60
2023-02-09T03:33:26.248Z,75.60
2023-02-09T03:36:01.032Z,75.30
2023-02-09T03:38:28.421Z,74.80
2023-02-09T03:40:55.667Z,74.80
2023-02-09T03:43:42.542Z,74.70
2023-02-09T03:46:09.844Z,74.60
2023-02-09T03:48:37.000Z,74.80
2023-02-09T03:51:06.588Z,74.90
2023-02-09T03:53:37.499Z,74.90
2023-02-09T03:56:09.165Z,74.80
2023-02-09T03:58:37.049Z,74.90
2023-02-09T04:01:08.059Z,74.90
2023-02-09T04:03:37.138Z,75.30
2023-02-09T04:06:04.796Z,75.30
2023-02-09T04:08:33.555Z,75.30
2023-02-09T04:11:00.568Z,75.40
2023-02-09T04:13:27.992Z,75.30
2023-02-09T04:15:55.227Z,75.20
2023-02-09T04:18:22.201Z,75.30
2023-02-09T04:20:49.172Z,75.30
2023-02-09T04:23:16.389Z,75.30
2023-02-09T04:25:43.680Z,75.30
2023-02-09T04:28:10.774Z,75.20
2023-02-09T04:30:37.767Z,75.30
2023-02-09T04:33:04.701Z,75.10
2023-02-09T04:35:31.614Z,75.20
2023-02-09T04:37:58.523Z,75.80
2023-02-09T04:40:25.420Z,75.50
2023-02-09T04:42:52.280Z,75.50
2023-02-09T04:45:19.246Z,75.50
2023-02-09T04:47:46.126Z,75.60
2023-02-09T04:50:13.098Z,75.70
2023-02-09T04:52:39.954Z,76.00
2023-02-09T04:55:07.097Z,76.20
2023-02-09T04:57:52.577Z,76.60
2023-02-09T05:00:19.836Z,77.00
2023-02-09T05:02:46.702Z,77.20
2023-02-09T05:05:13.560Z,77.40
2023-02-09T05:07:40.409Z,77.70
2023-02-09T05:10:07.941Z,78.10
2023-02-09T05:12:34.814Z,78.80
2023-02-09T05:15:01.793Z,79.10
2023-02-09T05:17:30.631Z,79.50
2023-02-09T05:19:57.526Z,79.80
2023-02-09T05:22:24.411Z,80.20
2023-02-09T05:24:51.255Z,80.20
2023-02-09T05:27:18.528Z,80.40
2023-02-09T05:29:45.423Z,80.80
2023-02-09T05:32:12.333Z,81.20
2023-02-09T05:34:39.200Z,81.30
2023-02-09T05:37:06.191Z,81.20
2023-02-09T05:39:33.091Z,81.10
2023-02-09T05:42:15.508Z,81.30
2023-02-09T05:44:49.748Z,81.60
2023-02-09T05:47:21.898Z,81.80
2023-02-09T05:49:49.008Z,81.90
2023-02-09T05:52:16.594Z,82.10
2023-02-09T05:54:46.382Z,82.10
2023-02-09T05:57:13.699Z,82.00
2023-02-09T05:59:40.581Z,81.90
2023-02-09T06:02:07.898Z,81.80
2023-02-09T06:04:35.405Z,81.70
2023-02-09T06:07:03.034Z,81.80
2023-02-09T06:09:29.940Z,81.80
2023-02-09T06:11:56.810Z,81.70
2023-02-09T06:14:23.931Z,81.50
2023-02-09T06:16:50.938Z,81.20
2023-02-09T06:19:21.121Z,81.10
2023-02-09T06:21:48.293Z,81.40
2023-02-09T06:24:17.007Z,82.00
2023-02-09T06:26:44.068Z,82.40
2023-02-09T06:29:11.053Z,82.40
2023-02-09T06:31:38.537Z,82.80
2023-02-09T06:34:05.740Z,82.80
2023-02-09T06:36:33.198Z,83.10
2023-02-09T06:39:01.249Z,83.20
2023-02-09T06:41:28.322Z,83.40
2023-02-09T06:43:55.193Z,83.10
2023-02-09T06:46:22.200Z,83.00
2023-02-09T06:48:49.553Z,82.90
2023-02-09T06:51:17.502Z,83.20
2023-02-09T06:53:44.941Z,83.50
2023-02-09T06:56:13.411Z,83.70
2023-02-09T06:58:42.015Z,84.00
2023-02-09T07:01:15.479Z,84.00
2023-02-09T07:03:43.763Z,83.90
2023-02-09T07:06:19.150Z,83.90
2023-02-09T07:08:46.709Z,83.50
2023-02-09T07:11:17.401Z,82.70
2023-02-09T07:13:45.739Z,81.60
2023-02-09T07:16:13.297Z,80.10
2023-02-09T07:18:40.938Z,79.30
2023-02-09T07:21:18.232Z,77.60
2023-02-09T07:23:47.592Z,76.60
2023-02-09T07:26:17.993Z,75.50
2023-02-09T07:28:45.998Z,74.40
2023-02-09T07:31:16.494Z,73.30
2023-02-09T07:33:43.837Z,72.50
2023-02-09T07:36:15.364Z,71.10
2023-02-09T07:38:42.939Z,70.80
2023-02-09T07:41:20.899Z,70.40
2023-02-09T07:43:47.935Z,69.50
2023-02-09T07:46:19.264Z,68.90
2023-02-09T07:48:46.708Z,68.80
2023-02-09T07:51:25.146Z,68.20
2023-02-09T07:53:53.797Z,67.80
2023-02-09T07:56:22.039Z,66.90
2023-02-09T07:58:50.093Z,66.90
2023-02-09T08:01:18.637Z,66.80
2023-02-09T08:03:50.015Z,65.60
2023-02-09T08:06:42.793Z,65.90
2023-02-09T08:09:16.512Z,65.00
2023-02-09T08:12:01.646Z,63.90
2023-02-09T08:14:41.573Z,64.30
2023-02-09T08:17:24.250Z,64.70
2023-02-09T08:20:16.087Z,63.70
2023-02-09T08:22:51.116Z,62.20
2023-02-09T08:25:22.779Z,62.60
2023-02-09T08:27:51.577Z,63.00
2023-02-09T08:30:19.682Z,62.30
2023-02-09T08:32:46.582Z,61.30
2023-02-09T08:35:14.140Z,60.30
2023-02-09T08:37:41.176Z,59.40
2023-02-09T08:40:09.018Z,59.80
2023-02-09T08:42:35.988Z,59.40
2023-02-09T08:45:02.883Z,58.80
2023-02-09T08:47:29.769Z,58.50
2023-02-09T08:49:56.669Z,58.50
2023-02-09T08:52:23.526Z,58.20
2023-02-09T08:54:50.507Z,57.70
2023-02-09T08:57:17.402Z,57.90
2023-02-09T08:59:44.311Z,58.30
2023-02-09T09:03:33.434Z,57.30
2023-02-09T09:06:10.900Z,58.00
2023-02-09T09:08:40.142Z,57.30
2023-02-09T09:11:12.644Z,57.20
2023-02-09T09:13:41.882Z,56.70
2023-02-09T09:16:23.029Z,56.90
2023-02-09T09:18:50.295Z,55.70
2023-02-09T09:21:19.377Z,55.50
2023-02-09T09:23:47.562Z,55.30
2023-02-09T09:26:16.754Z,54.70
2023-02-09T09:28:44.990Z,54.60
2023-02-09T09:31:16.965Z,53.50
2023-02-09T09:33:45.724Z,54.00
2023-02-09T09:36:14.515Z,54.80
2023-02-09T09:38:42.265Z,54.20
2023-02-09T09:41:34.384Z,53.40
2023-02-09T09:44:03.654Z,53.90
2023-02-09T09:46:40.898Z,54.20
2023-02-09T09:49:28.529Z,54.40
2023-02-09T09:52:28.250Z,52.80
2023-02-09T09:54:55.397Z,52.50
2023-02-09T09:57:29.928Z,52.20
2023-02-09T09:59:58.098Z,52.30
2023-02-09T10:02:34.303Z,51.20
2023-02-09T10:05:25.442Z,51.80
2023-02-09T10:08:03.793Z,50.60
2023-02-09T10:11:06.096Z,50.30
2023-02-09T10:13:57.164Z,51.20
2023-02-09T10:16:37.952Z,50.40
2023-02-09T10:19:26.026Z,50.00
2023-02-09T10:21:54.283Z,50.60
2023-02-09T10:24:34.196Z,50.10
2023-02-09T10:27:31.018Z,49.70
2023-02-09T10:30:20.484Z,50.70
2023-02-09T10:32:48.204Z,49.80
2023-02-09T10:35:47.692Z,49.60
2023-02-09T10:38:23.820Z,48.90
2023-02-09T10:40:51.649Z,49.80
2023-02-09T10:43:34.539Z,49.10
2023-02-09T10:46:16.895Z,47.00
2023-02-09T10:48:46.791Z,45.20
2023-02-09T10:51:31.264Z,44.80
2023-02-09T10:54:20.642Z,44.90
2023-02-09T10:56:49.810Z,44.10
2023-02-09T10:59:25.679Z,42.60
2023-02-09T11:02:02.438Z,42.70
2023-02-09T11:04:41.269Z,42.80
2023-02-09T11:07:19.534Z,43.30
2023-02-09T11:09:51.756Z,42.80
2023-02-09T11:12:22.498Z,42.20
2023-02-09T11:14:49.632Z,42.30
2023-02-09T11:17:45.480Z,43.10
2023-02-09T11:20:35.400Z,42.90
2023-02-09T11:23:42.913Z,41.90
2023-02-09T11:27:00.882Z,42.80
2023-02-09T11:30:07.618Z,42.20
2023-02-09T11:32:56.670Z,41.80
2023-02-09T11:35:52.309Z,42.40
2023-02-09T11:38:43.973Z,42.00
2023-02-09T11:41:43.985Z,41.70
2023-02-09T11:44:30.323Z,41.50
2023-02-09T11:47:17.854Z,43.00
2023-02-09T11:49:52.206Z,42.20
2023-02-09T11:52:38.134Z,42.70
2023-02-09T11:55:43.186Z,42.70
2023-02-09T11:58:46.992Z,43.10
2023-02-09T12:02:17.429Z,42.60
2023-02-09T12:05:00.686Z,40.70
2023-02-09T12:08:01.260Z,39.40
2023-02-09T12:10:52.666Z,39.20
2023-02-09T12:13:52.769Z,38.40
2023-02-09T12:16:34.884Z,37.10
2023-02-09T12:19:05.718Z,36.30
2023-02-09T12:21:38.327Z,36.20
2023-02-09T12:24:40.569Z,38.00
2023-02-09T12:27:26.610Z,38.70
2023-02-09T12:29:53.514Z,38.70
2023-02-09T12:32:44.656Z,38.40
2023-02-09T12:35:40.026Z,38.20
2023-02-09T12:38:19.474Z,37.70
2023-02-09T12:41:06.265Z,37.00
2023-02-09T12:43:37.412Z,37.10
2023-02-09T12:46:23.774Z,36.40
2023-02-09T12:49:39.720Z,37.80
2023-02-09T12:52:17.162Z,37.70
2023-02-09T12:54:56.672Z,37.80
2023-02-09T12:57:23.799Z,38.90
2023-02-09T12:59:51.037Z,38.30
2023-02-09T13:02:49.603Z,38.60
2023-02-09T13:05:18.949Z,38.50
2023-02-09T13:08:05.864Z,39.50
2023-02-09T13:11:07.020Z,39.80
2023-02-09T13:14:02.987Z,40.20
2023-02-09T13:16:29.748Z,40.90
2023-02-09T13:20:02.308Z,41.70
2023-02-09T13:23:18.630Z,42.00
2023-02-09T13:25:47.056Z,40.50
2023-02-09T13:28:26.351Z,40.20
2023-02-09T13:30:54.095Z,40.30
2023-02-09T13:33:49.137Z,40.60
2023-02-09T13:36:42.444Z,39.90
2023-02-09T13:39:24.571Z,40.90
2023-02-09T13:41:54.554Z,41.80
2023-02-09T13:44:30.005Z,43.80
2023-02-09T13:47:07.057Z,43.80
2023-02-09T13:49:33.916Z,43.10
2023-02-09T13:52:23.392Z,43.20
2023-02-09T13:54:50.802Z,43.80
2023-02-09T13:57:36.877Z,44.30
2023-02-09T14:00:30.156Z,44.60
2023-02-09T14:03:12.317Z,44.70
2023-02-09T14:06:30.060Z,44.60
2023-02-09T14:09:00.900Z,43.80
2023-02-09T14:11:55.083Z,42.00
2023-02-09T14:14:51.242Z,42.20
2023-02-09T14:17:29.926Z,42.20
2023-02-09T14:19:59.570Z,42.90
2023-02-09T14:22:39.842Z,44.00
2023-02-09T14:25:30.043Z,44.60
2023-02-09T14:27:58.468Z,44.70
2023-02-09T14:30:34.014Z,44.70
2023-02-09T14:33:03.708Z,44.30
2023-02-09T14:35:42.098Z,44.10
2023-02-09T14:38:47.495Z,43.70
2023-02-09T14:41:36.275Z,43.90
2023-02-09T14:44:18.149Z,43.10
2023-02-09T14:46:59.185Z,43.30
2023-02-09T14:49:28.053Z,43.40
2023-02-09T14:52:15.061Z,43.00
2023-02-09T14:54:50.106Z,42.50
2023-02-09T14:57:17.074Z,43.20
2023-02-09T14:59:43.931Z,43.50
2023-02-09T15:02:20.810Z,43.30
2023-02-09T15:04:47.985Z,43.60
2023-02-09T15:07:23.941Z,43.60
2023-02-09T15:09:51.506Z,43.80
2023-02-09T15:12:27.668Z,43.90
2023-02-09T15:15:01.637Z,44.20
2023-02-09T15:17:31.332Z,44.30
2023-02-09T15:19:59.116Z,45.60
2023-02-09T15:22:26.199Z,46.20
2023-02-09T15:24:54.657Z,46.10
2023-02-09T15:27:41.362Z,46.90
2023-02-09T15:30:27.239Z,47.60
2023-02-09T15:32:54.318Z,48.10
2023-02-09T15:35:26.788Z,48.20
2023-02-09T15:37:59.520Z,48.90
2023-02-09T15:40:58.819Z,48.70
2023-02-09T15:43:45.955Z,49.10
2023-02-09T15:46:32.816Z,49.60
2023-02-09T15:49:00.414Z,50.20
2023-02-09T15:51:33.963Z,50.90
2023-02-09T15:54:11.960Z,51.40
2023-02-09T15:56:39.477Z,52.40
2023-02-09T15:59:06.444Z,53.10
2023-02-09T16:01:34.692Z,53.80
2023-02-09T16:04:14.030Z,54.20
2023-02-09T16:06:53.208Z,54.60
2023-02-09T16:09:30.852Z,55.20
2023-02-09T16:11:57.866Z,55.90
2023-02-09T16:14:26.762Z,56.40
2023-02-09T16:16:53.838Z,57.30
2023-02-09T16:19:22.008Z,58.30
2023-02-09T16:21:58.230Z,59.20
2023-02-09T16:24:35.915Z,60.40
2023-02-09T16:27:15.533Z,61.70
2023-02-09T16:29:42.803Z,63.50
2023-02-09T16:32:23.152Z,65.50
2023-02-09T16:34:51.961Z,68.70
2023-02-09T16:37:30.882Z,69.50
2023-02-09T16:39:58.793Z,70.50
2023-02-09T16:42:26.462Z,71.30
2023-02-09T16:44:53.487Z,72.20
2023-02-09T16:47:26.846Z,73.30
2023-02-09T16:50:04.551Z,75.30
2023-02-09T16:52:32.095Z,76.70
2023-02-09T16:55:05.660Z,77.20
2023-02-09T16:57:32.555Z,78.00
2023-02-09T16:59:59.563Z,78.20
2023-02-09T17:02:39.788Z,78.20
2023-02-09T17:05:28.881Z,78.70
2023-02-09T17:08:10.382Z,79.80
2023-02-09T17:10:37.254Z,81.30
2023-02-09T17:13:04.672Z,81.80
2023-02-09T17:15:44.634Z,83.10
2023-02-09T17:18:24.506Z,85.70
2023-02-09T17:21:02.245Z,87.20
2023-02-09T17:23:30.619Z,87.90
2023-02-09T17:25:58.854Z,88.80
2023-02-09T17:28:27.866Z,89.40
2023-02-09T17:31:01.515Z,89.90
2023-02-09T17:33:34.971Z,90.40
2023-02-09T17:38:50.920Z,90.20
2023-02-09T17:41:37.221Z,90.20
2023-02-09T17:44:35.393Z,90.20
2023-02-09T17:47:19.846Z,90.50
2023-02-09T17:49:47.050Z,90.90
2023-02-09T17:52:18.497Z,91.10
2023-02-09T17:54:46.584Z,90.80
2023-02-09T17:57:17.977Z,90.40
2023-02-09T17:59:45.957Z,90.40
2023-02-09T18:02:19.645Z,90.70
2023-02-09T18:04:46.658Z,91.60
2023-02-09T18:07:19.898Z,91.90
2023-02-09T18:09:46.803Z,91.80
2023-02-09T18:12:26.277Z,91.60
2023-02-09T18:14:53.359Z,91.60
2023-02-09T18:17:20.406Z,91.50
2023-02-09T18:19:47.372Z,91.80
2023-02-09T18:22:17.945Z,92.90
2023-02-09T18:24:45.807Z,92.90
2023-02-09T18:27:20.892Z,92.70
2023-02-09T18:29:47.852Z,92.80
2023-02-09T18:32:17.344Z,92.60
2023-02-09T18:34:44.486Z,92.90
2023-02-09T18:37:14.510Z,93.20
2023-02-09T18:39:45.960Z,93.50
2023-02-09T18:42:16.130Z,93.70
2023-02-09T18:44:43.056Z,93.50
2023-02-09T18:47:11.565Z,93.50
2023-02-09T18:49:39.130Z,94.10
2023-02-09T18:52:06.195Z,94.00
2023-02-09T18:54:33.527Z,93.70
2023-02-09T18:57:00.691Z,93.20
2023-02-09T18:59:31.358Z,93.10
2023-02-09T19:01:59.688Z,92.90
2023-02-09T19:04:26.954Z,92.50
2023-02-09T19:06:54.169Z,92.20
2023-02-09T19:09:21.163Z,92.00
2023-02-09T19:11:48.164Z,92.10
2023-02-09T19:14:33.889Z,92.10
2023-02-09T19:17:00.765Z,92.30
2023-02-09T19:19:27.686Z,92.90
2023-02-09T19:21:55.494Z,94.60
2023-02-09T19:24:22.354Z,96.00
2023-02-09T19:26:49.890Z,96.40
2023-02-09T19:29:17.070Z,96.60
2023-02-09T19:31:44.041Z,96.40
2023-02-09T19:34:10.922Z,95.60
2023-02-09T19:36:37.923Z,95.40
2023-02-09T19:39:04.815Z,95.80
2023-02-09T19:41:31.749Z,95.50
2023-02-09T19:43:59.278Z,95.10
2023-02-09T19:46:26.311Z,95.50
2023-02-09T19:48:53.733Z,96.00
2023-02-09T19:51:21.423Z,95.30
2023-02-09T19:53:48.874Z,94.80
2023-02-09T19:56:20.527Z,94.60
2023-02-09T19:58:47.438Z,94.40
2023-02-09T20:01:14.480Z,94.20
2023-02-09T20:03:42.335Z,94.20
2023-02-09T20:06:14.109Z,94.10
2023-02-09T20:08:41.072Z,94.30
2023-02-09T20:11:12.826Z,95.20
2023-02-09T20:13:39.840Z,95.70
2023-02-09T20:16:21.950Z,95.70
2023-02-09T20:18:50.202Z,95.00
2023-02-09T20:21:21.546Z,94.50
2023-02-09T20:23:48.631Z,94.30
2023-02-09T20:26:22.661Z,94.80
2023-02-09T20:28:51.013Z,95.40
2023-02-09T20:31:29.157Z,95.40
2023-02-09T20:33:58.145Z,94.90
2023-02-09T20:36:25.882Z,94.70
2023-02-09T20:38:52.940Z,94.60
2023-02-09T20:41:19.857Z,94.40
2023-02-09T20:44:05.672Z,94.40
2023-02-09T20:46:44.013Z,94.80
2023-02-09T20:49:17.056Z,95.00
2023-02-09T20:51:45.944Z,94.40
2023-02-09T20:54:13.773Z,94.30
2023-02-09T20:56:40.860Z,94.90
2023-02-09T20:59:08.818Z,94.90
2023-02-09T21:01:39.077Z,94.60
2023-02-09T21:04:07.286Z,94.40
2023-02-09T21:06:37.138Z,94.20
2023-02-09T21:09:09.015Z,94.10
2023-02-09T21:11:35.978Z,94.10
2023-02-09T21:14:03.419Z,94.00
2023-02-09T21:16:31.485Z,93.90
2023-02-09T21:18:59.418Z,94.20
2023-02-09T21:21:27.246Z,94.80
2023-02-09T21:23:54.533Z,94.40
2023-02-09T21:26:24.266Z,93.90
2023-02-09T21:28:56.684Z,93.90
2023-02-09T21:31:28.075Z,94.20
2023-02-09T21:33:55.164Z,94.20
2023-02-09T21:36:22.197Z,94.00
2023-02-09T21:38:49.620Z,93.60
2023-02-09T21:41:42.785Z,93.20
2023-02-09T21:44:11.698Z,93.30
2023-02-09T21:46:39.023Z,93.50
2023-02-09T21:49:05.966Z,93.00
2023-02-09T21:51:33.282Z,92.70
2023-02-09T21:54:00.307Z,92.50
2023-02-09T21:56:27.420Z,92.70
2023-02-09T21:58:54.329Z,92.90
2023-02-09T22:01:21.213Z,93.10
2023-02-09T22:03:56.840Z,93.30
2023-02-09T22:06:30.179Z,93.60
2023-02-09T22:08:57.246Z,93.90
2023-02-09T22:11:24.132Z,94.30
2023-02-09T22:13:50.996Z,94.60
2023-02-09T22:16:22.088Z,94.60
2023-02-09T22:18:49.621Z,94.30
2023-02-09T22:21:18.025Z,94.10
2023-02-09T22:23:44.942Z,94.10
2023-02-09T22:26:13.785Z,94.30
2023-02-09T22:28:42.027Z,94.90
2023-02-09T22:31:14.497Z,95.20
2023-02-09T22:33:41.753Z,95.10
2023-02-09T22:36:16.233Z,95.00
2023-02-09T22:38:44.718Z,95.00
2023-02-09T22:41:23.994Z,94.90
2023-02-09T22:44:02.452Z,95.00
2023-02-09T22:46:36.935Z,95.10
2023-02-09T22:49:09.367Z,94.60
2023-02-09T22:51:36.697Z,93.90
2023-02-09T22:54:06.210Z,93.50
2023-02-09T22:56:33.374Z,93.30
2023-02-09T22:59:01.626Z,93.50
2023-02-09T23:01:30.312Z,93.70
2023-02-09T23:03:58.016Z,93.60
2023-02-09T23:06:29.634Z,93.60
2023-02-09T23:09:02.093Z,93.60
2023-02-09T23:11:31.635Z,93.60
2023-02-09T23:14:10.209Z,94.20
2023-02-09T23:16:40.647Z,94.10
2023-02-09T23:19:19.976Z,93.80
2023-02-09T23:21:51.811Z,93.70
2023-02-09T23:24:22.077Z,93.40
2023-02-09T23:26:49.223Z,93.20
2023-02-09T23:29:18.338Z,93.10
2023-02-09T23:31:47.110Z,92.80
2023-02-09T23:34:22.995Z,92.60
2023-02-09T23:36:50.432Z,92.60
2023-02-09T23:39:22.385Z,93.10
2023-02-09T23:41:49.627Z,93.10
2023-02-09T23:44:16.534Z,92.70
2023-02-09T23:46:44.561Z,92.60
2023-02-09T23:49:11.778Z,92.30
2023-02-09T23:51:38.698Z,92.40
2023-02-09T23:54:07.369Z,92.70
2023-02-09T23:56:37.145Z,93.00
2023-02-09T23:59:09.493Z,93.40
